createdAt,value
2017-12-22T00:00:31.939Z,9.73
2017-12-22T00:02:59.166Z,9.32
2017-12-22T00:05:26.401Z,9.07
2017-12-22T00:07:53.642Z,10.00
2017-12-22T00:10:20.865Z,8.82
2017-12-22T00:12:48.099Z,8.57
2017-12-22T00:15:15.329Z,8.13
2017-12-22T00:17:42.552Z,9.40
2017-12-22T00:20:09.793Z,9.45
2017-12-22T00:22:37.030Z,10.55
2017-12-22T00:25:04.264Z,9.05
2017-12-22T00:27:31.491Z,7.70
2017-12-22T00:29:58.800Z,6.32
2017-12-22T00:32:26.034Z,8.07
2017-12-22T00:34:53.308Z,8.77
2017-12-22T00:37:20.567Z,9.38
2017-12-22T00:39:47.789Z,7.40
2017-12-22T00:42:15.031Z,8.35
2017-12-22T00:44:42.308Z,8.98
2017-12-22T00:47:09.554Z,11.18
2017-12-22T00:49:36.877Z,10.50
2017-12-22T00:52:04.102Z,9.55
2017-12-22T00:54:31.333Z,8.90
2017-12-22T00:56:58.571Z,9.43
2017-12-22T00:59:25.797Z,9.48
2017-12-22T01:01:53.073Z,8.23
2017-12-22T01:04:20.310Z,9.00
2017-12-22T01:06:47.551Z,7.32
2017-12-22T01:09:14.789Z,8.65
2017-12-22T01:11:42.005Z,7.47
2017-12-22T01:14:09.332Z,7.53
2017-12-22T01:16:42.209Z,7.55
2017-12-22T01:19:15.285Z,8.60
2017-12-22T01:21:42.526Z,7.80
2017-12-22T01:24:09.750Z,7.62
2017-12-22T01:26:36.994Z,7.53
2017-12-22T01:29:04.226Z,8.68
2017-12-22T01:31:31.458Z,7.93
2017-12-22T01:33:58.690Z,7.12
2017-12-22T01:36:25.966Z,7.05
2017-12-22T01:38:53.222Z,7.47
2017-12-22T01:41:20.462Z,7.90
2017-12-22T01:43:47.694Z,9.00
2017-12-22T01:46:14.917Z,9.30
2017-12-22T01:48:42.236Z,10.20
2017-12-22T01:51:09.466Z,7.90
2017-12-22T01:53:36.736Z,9.80
2017-12-22T01:56:04.046Z,8.40
2017-12-22T01:58:31.350Z,7.90
2017-12-22T02:00:58.576Z,9.52
2017-12-22T02:03:25.814Z,10.57
2017-12-22T02:05:53.048Z,11.10
2017-12-22T02:08:20.351Z,10.45
2017-12-22T02:10:47.603Z,9.80
2017-12-22T02:13:14.846Z,10.70
2017-12-22T02:15:42.079Z,10.20
2017-12-22T02:18:09.318Z,9.75
2017-12-22T02:20:36.551Z,11.15
2017-12-22T02:23:03.785Z,8.98
2017-12-22T02:25:31.012Z,7.78
2017-12-22T02:27:58.254Z,10.30
2017-12-22T02:30:25.574Z,8.48
2017-12-22T02:32:52.800Z,10.18
2017-12-22T02:35:20.118Z,9.20
2017-12-22T02:37:47.359Z,9.40
2017-12-22T02:40:14.591Z,9.48
2017-12-22T02:42:41.935Z,9.60
2017-12-22T02:45:09.150Z,9.32
2017-12-22T02:47:36.398Z,11.75
2017-12-22T02:50:03.623Z,10.30
2017-12-22T02:52:30.944Z,10.10
2017-12-22T02:54:58.166Z,10.70
2017-12-22T02:57:25.501Z,12.23
2017-12-22T02:59:52.736Z,12.65
2017-12-22T03:02:19.976Z,9.80
2017-12-22T03:04:47.213Z,10.38
2017-12-22T03:07:14.444Z,11.35
2017-12-22T03:09:41.685Z,10.73
2017-12-22T03:12:08.958Z,8.10
2017-12-22T03:14:36.262Z,8.05
2017-12-22T03:17:03.498Z,7.45
2017-12-22T03:19:30.721Z,6.80
2017-12-22T03:21:57.945Z,6.62
2017-12-22T03:24:25.186Z,6.07
2017-12-22T03:26:52.409Z,5.00
2017-12-22T03:29:19.648Z,6.60
2017-12-22T03:31:46.881Z,6.05
2017-12-22T03:34:14.121Z,5.10
2017-12-22T03:36:41.417Z,5.75
2017-12-22T03:39:08.733Z,5.97
2017-12-22T03:41:36.080Z,4.47
2017-12-22T03:44:03.275Z,5.78
2017-12-22T03:46:30.520Z,5.53
2017-12-22T03:48:57.780Z,5.47
2017-12-22T03:51:25.006Z,5.28
2017-12-22T03:53:52.241Z,6.20
2017-12-22T03:56:19.597Z,4.20
2017-12-22T03:58:46.888Z,4.93
2017-12-22T04:01:14.125Z,4.50
2017-12-22T04:03:41.349Z,5.00
2017-12-22T04:06:08.706Z,4.68
2017-12-22T04:08:35.993Z,4.03
2017-12-22T04:11:03.227Z,5.05
2017-12-22T04:13:30.445Z,3.33
2017-12-22T04:15:57.696Z,3.80
2017-12-22T04:18:24.921Z,3.20
2017-12-22T04:20:52.260Z,3.87
2017-12-22T04:23:19.480Z,3.53
2017-12-22T04:25:46.825Z,2.97
2017-12-22T04:28:14.037Z,2.95
2017-12-22T04:30:41.370Z,3.90
2017-12-22T04:33:14.540Z,3.45
2017-12-22T04:35:41.815Z,3.35
2017-12-22T04:38:09.048Z,3.72
2017-12-22T04:40:36.282Z,3.40
2017-12-22T04:43:03.509Z,3.70
2017-12-22T04:45:30.737Z,4.10
2017-12-22T04:47:57.953Z,3.70
2017-12-22T04:50:25.221Z,3.00
2017-12-22T04:52:52.446Z,3.75
2017-12-22T04:55:19.674Z,3.87
2017-12-22T04:57:46.906Z,3.50
2017-12-22T05:00:14.143Z,4.45
2017-12-22T05:02:41.357Z,3.95
2017-12-22T05:05:08.597Z,4.65
2017-12-22T05:07:35.825Z,3.58
2017-12-22T05:10:03.062Z,3.95
2017-12-22T05:12:30.299Z,4.10
2017-12-22T05:14:57.517Z,4.20
2017-12-22T05:17:24.757Z,4.12
2017-12-22T05:19:52.050Z,4.85
2017-12-22T05:22:19.285Z,4.12
2017-12-22T05:24:46.508Z,4.20
2017-12-22T05:27:13.738Z,4.82
2017-12-22T05:29:40.966Z,5.37
2017-12-22T05:32:08.198Z,6.10
2017-12-22T05:34:35.454Z,5.72
2017-12-22T05:37:02.794Z,6.10
2017-12-22T05:39:30.028Z,6.03
2017-12-22T05:41:57.266Z,7.57
2017-12-22T05:44:24.557Z,7.53
2017-12-22T05:46:51.811Z,7.87
2017-12-22T05:49:19.057Z,7.00
2017-12-22T05:51:46.313Z,8.38
2017-12-22T05:54:13.541Z,8.00
2017-12-22T05:56:40.824Z,7.53
2017-12-22T05:59:08.052Z,7.50
2017-12-22T06:01:40.361Z,7.40
2017-12-22T06:04:10.540Z,7.53
2017-12-22T06:06:38.192Z,6.97
2017-12-22T06:09:05.422Z,6.68
2017-12-22T06:11:38.087Z,7.32
2017-12-22T06:14:11.665Z,6.05
2017-12-22T06:16:38.900Z,6.75
2017-12-22T06:19:06.145Z,7.28
2017-12-22T06:21:33.373Z,7.80
2017-12-22T06:24:00.604Z,7.00
2017-12-22T06:26:27.847Z,8.90
2017-12-22T06:28:55.069Z,6.75
2017-12-22T06:31:22.304Z,7.78
2017-12-22T06:33:49.533Z,7.85
2017-12-22T06:36:16.824Z,8.50
2017-12-22T06:38:44.069Z,8.23
2017-12-22T06:41:11.297Z,7.45
2017-12-22T06:43:38.574Z,9.23
2017-12-22T06:46:05.799Z,9.55
2017-12-22T06:48:33.030Z,8.30
2017-12-22T06:51:00.265Z,10.23
2017-12-22T06:53:27.582Z,9.55
2017-12-22T06:55:54.807Z,9.77
2017-12-22T06:58:22.085Z,9.00
2017-12-22T07:00:49.309Z,9.90
2017-12-22T07:03:16.589Z,9.80
2017-12-22T07:05:43.826Z,10.82
2017-12-22T07:08:11.106Z,9.70
2017-12-22T07:10:38.339Z,11.23
2017-12-22T07:13:05.577Z,9.88
2017-12-22T07:15:32.810Z,10.75
2017-12-22T07:18:00.049Z,9.85
2017-12-22T07:20:27.363Z,11.07
2017-12-22T07:22:54.602Z,10.48
2017-12-22T07:25:21.830Z,8.65
2017-12-22T07:27:49.105Z,9.68
2017-12-22T07:30:16.361Z,10.00
2017-12-22T07:32:43.606Z,10.10
2017-12-22T07:35:10.834Z,10.30
2017-12-22T07:37:38.120Z,8.93
2017-12-22T07:40:05.365Z,9.73
2017-12-22T07:42:32.628Z,7.12
2017-12-22T07:44:59.866Z,10.57
2017-12-22T07:47:27.093Z,9.57
2017-12-22T07:49:54.338Z,10.32
2017-12-22T07:52:21.584Z,10.60
2017-12-22T07:54:48.809Z,9.13
2017-12-22T07:57:16.038Z,9.70
2017-12-22T07:59:43.284Z,9.98
2017-12-22T08:02:10.522Z,9.77
2017-12-22T08:04:37.754Z,8.18
2017-12-22T08:07:04.983Z,10.65
2017-12-22T08:09:32.220Z,9.63
2017-12-22T08:11:59.450Z,9.80
2017-12-22T08:14:26.690Z,8.82
2017-12-22T08:16:53.951Z,8.45
2017-12-22T08:19:21.190Z,9.82
2017-12-22T08:21:48.458Z,9.50
2017-12-22T08:24:15.694Z,8.65
2017-12-22T08:26:42.950Z,9.15
2017-12-22T08:29:10.205Z,7.15
2017-12-22T08:31:37.437Z,9.85
2017-12-22T08:34:04.705Z,10.80
2017-12-22T08:36:31.994Z,9.60
2017-12-22T08:38:59.181Z,9.73
2017-12-22T08:41:26.417Z,9.18
2017-12-22T08:43:53.773Z,10.45
2017-12-22T08:46:20.946Z,9.27
2017-12-22T08:48:48.165Z,7.20
2017-12-22T08:51:15.473Z,9.00
2017-12-22T08:53:42.723Z,6.75
2017-12-22T08:56:09.958Z,5.55
2017-12-22T08:58:37.173Z,4.60
2017-12-22T09:01:04.405Z,5.22
2017-12-22T09:03:31.629Z,6.55
2017-12-22T09:05:58.883Z,6.90
2017-12-22T09:08:26.097Z,7.00
2017-12-22T09:10:53.329Z,6.55
2017-12-22T09:13:20.609Z,7.40
2017-12-22T09:15:47.802Z,8.20
2017-12-22T09:18:15.033Z,8.63
2017-12-22T09:20:42.276Z,5.90
2017-12-22T09:23:09.494Z,7.93
2017-12-22T09:25:36.733Z,8.90
2017-12-22T09:28:03.964Z,9.65
2017-12-22T09:30:31.197Z,7.47
2017-12-22T09:32:58.421Z,7.30
2017-12-22T09:35:25.698Z,7.07
2017-12-22T09:37:52.929Z,6.47
2017-12-22T09:40:20.154Z,7.85
2017-12-22T09:42:47.382Z,6.53
2017-12-22T09:45:14.709Z,7.55
2017-12-22T09:47:41.938Z,7.45
2017-12-22T09:50:09.169Z,7.47
2017-12-22T09:52:36.397Z,10.07
2017-12-22T09:55:03.628Z,9.52
2017-12-22T09:57:30.966Z,9.52
2017-12-22T09:59:58.206Z,8.68
2017-12-22T10:02:25.439Z,7.85
2017-12-22T10:04:52.668Z,8.20
2017-12-22T10:07:19.975Z,9.88
2017-12-22T10:09:47.206Z,10.10
2017-12-22T10:12:14.443Z,9.95
2017-12-22T10:14:41.738Z,9.07
2017-12-22T10:17:08.975Z,9.32
2017-12-22T10:19:36.205Z,10.77
2017-12-22T10:22:03.486Z,11.45
2017-12-22T10:24:30.720Z,19.48
2017-12-22T10:26:57.963Z,8.50
2017-12-22T10:29:25.863Z,10.02
2017-12-22T10:31:53.106Z,12.90
2017-12-22T10:34:20.346Z,10.40
2017-12-22T10:36:47.581Z,6.60
2017-12-22T10:39:14.805Z,6.97
2017-12-22T10:41:42.050Z,3.08
2017-12-22T10:44:09.361Z,7.05
2017-12-22T10:46:36.606Z,3.60
2017-12-22T10:49:03.842Z,1.70
2017-12-22T10:51:31.065Z,1.98
2017-12-22T10:53:58.294Z,1.98
2017-12-22T10:56:25.621Z,1.70
2017-12-22T10:58:52.850Z,1.10
2017-12-22T11:01:20.074Z,1.50
2017-12-22T11:03:47.301Z,1.30
2017-12-22T11:06:14.629Z,1.08
2017-12-22T11:08:41.886Z,1.20
2017-12-22T11:11:09.203Z,1.60
2017-12-22T11:13:36.498Z,1.60
2017-12-22T11:16:03.729Z,1.00
2017-12-22T11:18:30.964Z,0.90
2017-12-22T11:20:58.185Z,0.93
2017-12-22T11:23:25.422Z,1.20
2017-12-22T11:25:52.753Z,1.05
2017-12-22T11:28:20.002Z,1.48
2017-12-22T11:30:47.287Z,1.20
2017-12-22T11:33:14.469Z,1.02
2017-12-22T11:35:41.686Z,0.90
2017-12-22T11:38:08.926Z,0.85
2017-12-22T11:40:36.149Z,0.80
2017-12-22T11:43:03.390Z,0.90
2017-12-22T11:45:30.661Z,0.90
2017-12-22T11:47:57.918Z,0.88
2017-12-22T11:50:25.154Z,1.08
2017-12-22T11:52:52.390Z,1.48
2017-12-22T11:55:19.619Z,1.20
2017-12-22T11:57:46.853Z,0.70
2017-12-22T12:00:14.078Z,0.80
2017-12-22T12:02:41.322Z,1.20
2017-12-22T12:05:08.580Z,0.70
2017-12-22T12:07:35.817Z,0.80
2017-12-22T12:10:03.054Z,1.02
2017-12-22T12:12:30.305Z,0.90
2017-12-22T12:14:57.581Z,1.05
2017-12-22T12:17:24.809Z,1.10
2017-12-22T12:19:52.860Z,1.23
2017-12-22T12:22:20.085Z,1.25
2017-12-22T12:24:47.321Z,1.20
2017-12-22T12:27:14.546Z,1.10
2017-12-22T12:29:41.781Z,1.35
2017-12-22T12:32:09.071Z,2.80
2017-12-22T12:34:36.305Z,1.48
2017-12-22T12:37:03.564Z,3.42
2017-12-22T12:39:30.821Z,1.95
2017-12-22T12:41:58.078Z,1.77
2017-12-22T12:44:25.330Z,1.90
2017-12-22T12:46:52.579Z,2.20
2017-12-22T12:49:19.816Z,2.40
2017-12-22T12:51:47.047Z,3.95
2017-12-22T12:54:14.290Z,3.00
2017-12-22T12:56:41.513Z,5.10
2017-12-22T12:59:08.743Z,3.78
2017-12-22T13:01:35.974Z,3.90
2017-12-22T13:04:03.305Z,4.10
2017-12-22T13:06:30.517Z,4.37
2017-12-22T13:08:57.765Z,7.43
2017-12-22T13:11:25.102Z,4.53
2017-12-22T13:13:52.345Z,5.32
2017-12-22T13:16:19.596Z,4.25
2017-12-22T13:18:46.841Z,5.22
2017-12-22T13:21:14.074Z,5.03
2017-12-22T13:23:41.367Z,5.50
2017-12-22T13:26:08.593Z,5.60
2017-12-22T13:28:35.820Z,3.85
2017-12-22T13:31:03.055Z,5.50
2017-12-22T13:33:30.369Z,4.10
2017-12-22T13:35:57.601Z,4.43
2017-12-22T13:38:24.831Z,3.08
2017-12-22T13:40:52.057Z,4.45
2017-12-22T13:43:19.368Z,4.43
2017-12-22T13:45:46.596Z,4.70
2017-12-22T13:48:13.877Z,4.05
2017-12-22T13:50:41.129Z,3.95
2017-12-22T13:53:08.350Z,3.28
2017-12-22T13:55:35.652Z,3.22
2017-12-22T13:58:02.891Z,3.55
2017-12-22T14:00:30.122Z,3.78
2017-12-22T14:02:57.353Z,5.07
2017-12-22T14:05:24.643Z,3.45
2017-12-22T14:07:51.862Z,3.80
2017-12-22T14:10:19.163Z,3.53
2017-12-22T14:12:46.398Z,4.22
2017-12-22T14:15:13.637Z,3.08
2017-12-22T14:17:40.906Z,3.42
2017-12-22T14:20:08.257Z,3.40
2017-12-22T14:22:35.483Z,3.85
2017-12-22T14:25:02.716Z,3.47
2017-12-22T14:27:30.015Z,4.37
2017-12-22T14:29:57.249Z,3.72
2017-12-22T14:32:24.475Z,3.97
2017-12-22T14:34:51.769Z,4.55
2017-12-22T14:37:19.004Z,4.87
2017-12-22T14:39:46.233Z,5.15
2017-12-22T14:42:13.462Z,5.00
2017-12-22T14:44:40.693Z,4.93
2017-12-22T14:47:08.031Z,4.90
2017-12-22T14:49:35.253Z,3.55
2017-12-22T14:52:02.487Z,4.32
2017-12-22T14:54:29.793Z,4.65
2017-12-22T14:56:57.031Z,5.72
2017-12-22T14:59:24.289Z,6.15
2017-12-22T15:01:51.524Z,5.93
2017-12-22T15:04:18.746Z,4.95
2017-12-22T15:06:45.979Z,5.00
2017-12-22T15:09:13.216Z,5.80
2017-12-22T15:11:40.442Z,5.15
2017-12-22T15:14:07.665Z,4.82
2017-12-22T15:16:34.950Z,4.87
2017-12-22T15:19:02.177Z,4.50
2017-12-22T15:21:29.411Z,4.55
2017-12-22T15:23:56.632Z,4.95
2017-12-22T15:26:23.954Z,3.80
2017-12-22T15:28:51.181Z,4.30
2017-12-22T15:31:18.464Z,5.15
2017-12-22T15:33:45.701Z,5.03
2017-12-22T15:36:12.969Z,6.25
2017-12-22T15:38:40.190Z,5.78
2017-12-22T15:41:07.467Z,5.82
2017-12-22T15:43:34.693Z,7.25
2017-12-22T15:46:01.939Z,5.82
2017-12-22T15:48:29.210Z,5.00
2017-12-22T15:50:56.463Z,5.80
2017-12-22T15:53:23.688Z,4.70
2017-12-22T15:55:50.904Z,5.53
2017-12-22T15:58:18.271Z,6.55
2017-12-22T16:00:45.531Z,7.05
2017-12-22T16:03:13.712Z,7.47
2017-12-22T16:05:42.896Z,6.72
2017-12-22T16:08:10.155Z,6.70
2017-12-22T16:10:37.457Z,7.40
2017-12-22T16:13:04.698Z,6.25
2017-12-22T16:15:31.969Z,6.00
2017-12-22T16:17:59.217Z,6.55
2017-12-22T16:20:26.493Z,6.40
2017-12-22T16:22:53.720Z,7.70
2017-12-22T16:25:21.030Z,13.27
2017-12-22T16:27:48.258Z,6.50
2017-12-22T16:30:15.524Z,7.20
2017-12-22T16:32:42.744Z,5.60
2017-12-22T16:35:09.965Z,5.55
2017-12-22T16:37:37.203Z,5.05
2017-12-22T16:40:04.428Z,4.75
2017-12-22T16:42:31.674Z,6.62
2017-12-22T16:44:58.985Z,4.65
2017-12-22T16:47:26.217Z,3.85
2017-12-22T16:49:53.498Z,4.80
2017-12-22T16:52:20.795Z,4.43
2017-12-22T16:54:48.026Z,10.10
2017-12-22T16:57:15.251Z,4.32
2017-12-22T16:59:42.528Z,5.93
2017-12-22T17:02:09.780Z,5.30
2017-12-22T17:04:37.041Z,5.85
2017-12-22T17:07:04.274Z,13.98
2017-12-22T17:09:31.520Z,10.32
2017-12-22T17:11:58.745Z,9.63
2017-12-22T17:14:26.060Z,8.48
2017-12-22T17:16:53.264Z,8.30
2017-12-22T17:19:21.430Z,5.65
2017-12-22T17:21:48.696Z,18.85
2017-12-22T17:24:15.971Z,3.62
2017-12-22T17:26:43.190Z,5.47
2017-12-22T17:29:10.430Z,4.72
2017-12-22T17:31:38.382Z,7.62
2017-12-22T17:34:05.647Z,9.80
2017-12-22T17:36:34.872Z,5.10
2017-12-22T17:39:02.095Z,4.85
2017-12-22T17:41:29.368Z,5.80
2017-12-22T17:43:56.590Z,7.93
2017-12-22T17:46:23.821Z,7.65
2017-12-22T17:48:51.104Z,9.93
2017-12-22T17:51:18.320Z,10.00
2017-12-22T17:53:48.907Z,10.45
2017-12-22T17:56:16.158Z,8.88
2017-12-22T17:58:44.161Z,9.00
2017-12-22T18:01:12.860Z,14.90
2017-12-22T18:03:41.438Z,10.95
2017-12-22T18:06:08.725Z,9.15
2017-12-22T18:08:36.000Z,9.43
2017-12-22T18:11:03.226Z,9.85
2017-12-22T18:13:30.505Z,7.18
2017-12-22T18:15:59.033Z,9.27
2017-12-22T18:18:26.294Z,7.90
2017-12-22T18:20:53.575Z,7.32
2017-12-22T18:23:20.798Z,6.65
2017-12-22T18:25:48.094Z,14.52
2017-12-22T18:28:15.314Z,12.40
2017-12-22T18:30:42.599Z,29.98
2017-12-22T18:33:09.873Z,27.95
2017-12-22T18:35:37.152Z,8.63
2017-12-22T18:38:04.507Z,7.25
2017-12-22T18:40:31.784Z,9.77
2017-12-22T18:42:59.123Z,7.07
2017-12-22T18:45:26.474Z,5.82
2017-12-22T18:47:53.737Z,5.03
2017-12-22T18:50:21.012Z,5.03
2017-12-22T18:52:48.276Z,5.55
2017-12-22T18:55:15.544Z,6.55
2017-12-22T18:57:42.804Z,5.75
2017-12-22T19:00:10.021Z,5.03
2017-12-22T19:02:37.298Z,6.82
2017-12-22T19:05:04.683Z,8.30
2017-12-22T19:07:32.040Z,7.30
2017-12-22T19:09:59.257Z,8.55
2017-12-22T19:12:26.634Z,8.55
2017-12-22T19:14:53.851Z,7.70
2017-12-22T19:17:21.138Z,8.05
2017-12-22T19:19:48.400Z,7.50
2017-12-22T19:22:15.668Z,9.23
2017-12-22T19:24:42.936Z,9.95
2017-12-22T19:27:10.218Z,10.57
2017-12-22T19:29:37.476Z,8.45
2017-12-22T19:32:04.759Z,9.05
2017-12-22T19:34:32.031Z,8.30
2017-12-22T19:36:59.266Z,9.35
2017-12-22T19:39:26.547Z,8.85
2017-12-22T19:41:53.811Z,9.38
2017-12-22T19:44:21.069Z,9.32
2017-12-22T19:46:48.305Z,10.35
2017-12-22T19:49:15.584Z,14.43
2017-12-22T19:51:42.861Z,9.73
2017-12-22T19:54:10.069Z,8.77
2017-12-22T19:56:37.340Z,7.60
2017-12-22T19:59:04.637Z,7.68
2017-12-22T20:01:31.908Z,6.62
2017-12-22T20:03:59.166Z,7.47
2017-12-22T20:06:26.497Z,5.75
2017-12-22T20:08:53.755Z,6.32
2017-12-22T20:11:21.028Z,5.53
2017-12-22T20:13:48.361Z,5.12
2017-12-22T20:16:15.636Z,5.72
2017-12-22T20:18:42.906Z,6.37
2017-12-22T20:21:10.121Z,5.32
2017-12-22T20:23:37.414Z,6.45
2017-12-22T20:26:04.716Z,5.20
2017-12-22T20:28:32.069Z,6.37
2017-12-22T20:30:59.337Z,7.12
2017-12-22T20:33:26.678Z,7.68
2017-12-22T20:35:53.948Z,8.02
2017-12-22T20:38:21.276Z,9.75
2017-12-22T20:40:48.646Z,7.07
2017-12-22T20:43:15.925Z,10.63
2017-12-22T20:45:43.189Z,8.60
2017-12-22T20:48:10.457Z,8.80
2017-12-22T20:50:37.730Z,9.38
2017-12-22T20:53:05.011Z,6.93
2017-12-22T20:55:32.356Z,8.65
2017-12-22T20:57:59.713Z,9.80
2017-12-22T21:00:26.978Z,8.05
2017-12-22T21:02:54.323Z,10.45
2017-12-22T21:05:21.629Z,29.05
2017-12-22T21:07:48.908Z,10.63
2017-12-22T21:10:16.173Z,8.75
2017-12-22T21:12:43.463Z,9.20
2017-12-22T21:15:10.744Z,13.73
2017-12-22T21:17:38.020Z,13.82
2017-12-22T21:20:05.282Z,8.45
2017-12-22T21:22:32.556Z,9.15
2017-12-22T21:24:59.832Z,11.90
2017-12-22T21:27:27.122Z,8.75
2017-12-22T21:29:54.396Z,8.07
2017-12-22T21:32:21.663Z,7.40
2017-12-22T21:34:48.877Z,8.25
2017-12-22T21:37:16.167Z,11.40
2017-12-22T21:39:43.393Z,9.68
2017-12-22T21:42:10.673Z,11.38
2017-12-22T21:44:37.948Z,9.95
2017-12-22T21:47:05.171Z,10.65
2017-12-22T21:49:32.464Z,10.60
2017-12-22T21:51:59.724Z,11.07
2017-12-22T21:54:27.002Z,10.85
2017-12-22T21:56:54.364Z,11.85
2017-12-22T22:02:35.161Z,10.82
2017-12-22T22:05:02.444Z,11.32
2017-12-22T22:07:29.724Z,12.48
2017-12-22T22:09:57.012Z,14.43
2017-12-22T22:12:24.282Z,10.88
2017-12-22T22:14:51.571Z,12.25
2017-12-22T22:17:18.873Z,10.80
2017-12-22T22:19:46.150Z,11.18
2017-12-22T22:22:13.417Z,9.85
2017-12-22T22:24:40.696Z,10.10
2017-12-22T22:27:07.965Z,10.43
2017-12-22T22:29:35.251Z,8.90
2017-12-22T22:32:02.525Z,9.07
2017-12-22T22:34:29.805Z,8.68
2017-12-22T22:36:57.068Z,10.60
2017-12-22T22:39:24.294Z,8.73
2017-12-22T22:41:51.574Z,8.52
2017-12-22T22:44:18.858Z,8.48
2017-12-22T22:46:46.218Z,8.95
2017-12-22T22:49:13.496Z,9.75
2017-12-22T22:51:40.708Z,9.85
2017-12-22T22:54:08.069Z,11.02
2017-12-22T22:56:35.338Z,11.73
2017-12-22T22:59:02.596Z,11.23
2017-12-22T23:01:29.877Z,11.07
2017-12-22T23:03:57.150Z,10.73
2017-12-22T23:06:24.421Z,12.18
2017-12-22T23:08:51.637Z,9.85
2017-12-22T23:11:18.928Z,10.68
2017-12-22T23:13:46.150Z,11.12
2017-12-22T23:16:13.452Z,10.20
2017-12-22T23:18:40.724Z,11.38
2017-12-22T23:21:08.014Z,12.70
2017-12-22T23:23:35.291Z,10.70
2017-12-22T23:26:02.555Z,10.27
2017-12-22T23:28:29.896Z,14.40
2017-12-22T23:30:57.123Z,12.13
2017-12-22T23:33:24.400Z,14.05
2017-12-22T23:35:51.629Z,10.13
2017-12-22T23:38:18.919Z,10.27
2017-12-22T23:40:46.141Z,6.87
2017-12-22T23:43:13.463Z,6.82
2017-12-22T23:45:40.693Z,7.12
2017-12-22T23:48:07.978Z,7.43
2017-12-22T23:50:35.265Z,6.60
2017-12-22T23:53:02.515Z,6.40
2017-12-22T23:55:29.789Z,6.43
2017-12-22T23:57:57.073Z,5.50
